sensor_id;sensor_type;location;lat;lon;timestamp;P1;durP1;ratioP1;P2;durP2;ratioP2
3491;SDS011;1760;52.480;13.422;2023-05-07T00:00:50;14.07;;;8.90;;
3491;SDS011;1760;52.480;13.422;2023-05-07T00:03:19;17.03;;;9.53;;
3491;SDS011;1760;52.480;13.422;2023-05-07T00:05:46;10.93;;;8.73;;
3491;SDS011;1760;52.480;13.422;2023-05-07T00:08:13;9.73;;;6.77;;
3491;SDS011;1760;52.480;13.422;2023-05-07T00:10:41;10.53;;;7.63;;
3491;SDS011;1760;52.480;13.422;2023-05-07T00:13:08;10.57;;;7.63;;
3491;SDS011;1760;52.480;13.422;2023-05-07T00:15:35;12.83;;;8.00;;
3491;SDS011;1760;52.480;13.422;2023-05-07T00:18:03;11.10;;;5.43;;
3491;SDS011;1760;52.480;13.422;2023-05-07T00:20:32;13.40;;;7.10;;
3491;SDS011;1760;52.480;13.422;2023-05-07T00:22:59;11.60;;;8.17;;
3491;SDS011;1760;52.480;13.422;2023-05-07T00:25:26;22.60;;;12.17;;
3491;SDS011;1760;52.480;13.422;2023-05-07T00:27:53;8.40;;;5.90;;
3491;SDS011;1760;52.480;13.422;2023-05-07T00:30:22;13.87;;;7.30;;
3491;SDS011;1760;52.480;13.422;2023-05-07T00:32:49;9.73;;;6.73;;
3491;SDS011;1760;52.480;13.422;2023-05-07T00:35:22;7.67;;;6.47;;
3491;SDS011;1760;52.480;13.422;2023-05-07T00:37:50;11.10;;;6.87;;
3491;SDS011;1760;52.480;13.422;2023-05-07T00:40:19;12.27;;;6.87;;
3491;SDS011;1760;52.480;13.422;2023-05-07T00:42:46;9.93;;;7.17;;
3491;SDS011;1760;52.480;13.422;2023-05-07T00:45:14;7.43;;;6.50;;
3491;SDS011;1760;52.480;13.422;2023-05-07T00:47:41;11.30;;;7.13;;
3491;SDS011;1760;52.480;13.422;2023-05-07T00:50:09;10.50;;;7.20;;
3491;SDS011;1760;52.480;13.422;2023-05-07T00:52:37;7.57;;;5.27;;
3491;SDS011;1760;52.480;13.422;2023-05-07T00:55:06;10.07;;;6.73;;
3491;SDS011;1760;52.480;13.422;2023-05-07T00:57:36;8.60;;;7.00;;
3491;SDS011;1760;52.480;13.422;2023-05-07T01:00:04;9.33;;;6.97;;
3491;SDS011;1760;52.480;13.422;2023-05-07T01:02:33;7.93;;;6.73;;
3491;SDS011;1760;52.480;13.422;2023-05-07T01:05:01;15.70;;;7.50;;
3491;SDS011;1760;52.480;13.422;2023-05-07T01:07:29;12.67;;;6.87;;
3491;SDS011;1760;52.480;13.422;2023-05-07T01:09:56;9.00;;;6.10;;
3491;SDS011;1760;52.480;13.422;2023-05-07T01:12:25;28.07;;;7.73;;
3491;SDS011;1760;52.480;13.422;2023-05-07T01:14:55;8.90;;;6.73;;
3491;SDS011;1760;52.480;13.422;2023-05-07T01:17:23;7.47;;;6.17;;
3491;SDS011;1760;52.480;13.422;2023-05-07T01:19:50;11.77;;;7.60;;
3491;SDS011;1760;52.480;13.422;2023-05-07T01:22:23;11.83;;;7.43;;
3491;SDS011;1760;52.480;13.422;2023-05-07T01:24:57;9.27;;;6.20;;
3491;SDS011;1760;52.480;13.422;2023-05-07T01:27:24;13.77;;;8.07;;
3491;SDS011;1760;52.480;13.422;2023-05-07T01:29:51;10.73;;;7.23;;
3491;SDS011;1760;52.480;13.422;2023-05-07T01:32:21;9.10;;;7.70;;
3491;SDS011;1760;52.480;13.422;2023-05-07T01:34:53;9.70;;;7.27;;
3491;SDS011;1760;52.480;13.422;2023-05-07T01:37:22;15.70;;;8.00;;
3491;SDS011;1760;52.480;13.422;2023-05-07T01:39:50;10.17;;;7.27;;
3491;SDS011;1760;52.480;13.422;2023-05-07T01:42:17;7.60;;;5.70;;
3491;SDS011;1760;52.480;13.422;2023-05-07T01:44:45;9.47;;;7.20;;
3491;SDS011;1760;52.480;13.422;2023-05-07T01:47:12;13.27;;;8.43;;
3491;SDS011;1760;52.480;13.422;2023-05-07T01:49:40;12.90;;;7.13;;
3491;SDS011;1760;52.480;13.422;2023-05-07T01:52:09;12.73;;;6.33;;
3491;SDS011;1760;52.480;13.422;2023-05-07T01:54:38;7.60;;;6.27;;
3491;SDS011;1760;52.480;13.422;2023-05-07T01:57:05;12.70;;;8.60;;
3491;SDS011;1760;52.480;13.422;2023-05-07T01:59:32;9.53;;;6.47;;
3491;SDS011;1760;52.480;13.422;2023-05-07T02:01:59;7.90;;;6.73;;
3491;SDS011;1760;52.480;13.422;2023-05-07T02:04:26;8.93;;;6.40;;
3491;SDS011;1760;52.480;13.422;2023-05-07T02:06:55;9.83;;;6.20;;
3491;SDS011;1760;52.480;13.422;2023-05-07T02:09:22;8.20;;;6.27;;
3491;SDS011;1760;52.480;13.422;2023-05-07T02:11:50;10.73;;;7.43;;
3491;SDS011;1760;52.480;13.422;2023-05-07T02:14:17;9.83;;;6.90;;
3491;SDS011;1760;52.480;13.422;2023-05-07T02:16:46;9.10;;;5.80;;
3491;SDS011;1760;52.480;13.422;2023-05-07T02:19:14;10.43;;;6.40;;
3491;SDS011;1760;52.480;13.422;2023-05-07T02:21:41;9.57;;;6.50;;
3491;SDS011;1760;52.480;13.422;2023-05-07T02:24:11;11.47;;;8.17;;
3491;SDS011;1760;52.480;13.422;2023-05-07T02:26:39;7.20;;;5.57;;
3491;SDS011;1760;52.480;13.422;2023-05-07T02:29:07;11.17;;;5.77;;
3491;SDS011;1760;52.480;13.422;2023-05-07T02:31:34;8.20;;;5.87;;
3491;SDS011;1760;52.480;13.422;2023-05-07T02:34:01;7.70;;;5.87;;
3491;SDS011;1760;52.480;13.422;2023-05-07T02:36:29;9.40;;;7.00;;
3491;SDS011;1760;52.480;13.422;2023-05-07T02:38:56;12.20;;;7.33;;
3491;SDS011;1760;52.480;13.422;2023-05-07T02:41:23;10.63;;;6.07;;
3491;SDS011;1760;52.480;13.422;2023-05-07T02:43:50;7.90;;;6.73;;
3491;SDS011;1760;52.480;13.422;2023-05-07T02:46:19;9.87;;;7.97;;
3491;SDS011;1760;52.480;13.422;2023-05-07T02:48:46;11.67;;;6.90;;
3491;SDS011;1760;52.480;13.422;2023-05-07T02:51:13;12.00;;;7.00;;
3491;SDS011;1760;52.480;13.422;2023-05-07T02:53:40;11.20;;;6.70;;
3491;SDS011;1760;52.480;13.422;2023-05-07T02:56:07;9.17;;;5.00;;
3491;SDS011;1760;52.480;13.422;2023-05-07T02:58:34;8.77;;;6.23;;
3491;SDS011;1760;52.480;13.422;2023-05-07T03:01:02;9.93;;;8.23;;
3491;SDS011;1760;52.480;13.422;2023-05-07T03:03:30;9.90;;;7.07;;
3491;SDS011;1760;52.480;13.422;2023-05-07T03:05:58;7.87;;;5.83;;
3491;SDS011;1760;52.480;13.422;2023-05-07T03:08:27;10.60;;;6.50;;
3491;SDS011;1760;52.480;13.422;2023-05-07T03:10:54;7.40;;;5.00;;
3491;SDS011;1760;52.480;13.422;2023-05-07T03:13:21;6.37;;;5.50;;
3491;SDS011;1760;52.480;13.422;2023-05-07T03:15:48;8.27;;;5.60;;
3491;SDS011;1760;52.480;13.422;2023-05-07T03:18:16;12.37;;;6.93;;
3491;SDS011;1760;52.480;13.422;2023-05-07T03:20:44;9.47;;;6.23;;
3491;SDS011;1760;52.480;13.422;2023-05-07T03:23:11;6.00;;;4.73;;
3491;SDS011;1760;52.480;13.422;2023-05-07T03:25:38;9.70;;;7.00;;
3491;SDS011;1760;52.480;13.422;2023-05-07T03:28:06;8.90;;;6.10;;
3491;SDS011;1760;52.480;13.422;2023-05-07T03:30:33;14.30;;;5.50;;
3491;SDS011;1760;52.480;13.422;2023-05-07T03:33:00;6.23;;;5.53;;
3491;SDS011;1760;52.480;13.422;2023-05-07T03:35:27;9.60;;;6.20;;
3491;SDS011;1760;52.480;13.422;2023-05-07T03:37:56;9.20;;;5.50;;
3491;SDS011;1760;52.480;13.422;2023-05-07T03:40:23;7.70;;;5.83;;
3491;SDS011;1760;52.480;13.422;2023-05-07T03:42:50;9.90;;;6.97;;
3491;SDS011;1760;52.480;13.422;2023-05-07T03:45:18;11.70;;;6.87;;
3491;SDS011;1760;52.480;13.422;2023-05-07T03:47:45;13.40;;;7.60;;
3491;SDS011;1760;52.480;13.422;2023-05-07T03:50:12;11.90;;;6.17;;
3491;SDS011;1760;52.480;13.422;2023-05-07T03:52:39;8.70;;;5.77;;
3491;SDS011;1760;52.480;13.422;2023-05-07T03:55:08;8.90;;;6.80;;
3491;SDS011;1760;52.480;13.422;2023-05-07T03:57:35;8.03;;;6.20;;
3491;SDS011;1760;52.480;13.422;2023-05-07T04:00:03;8.33;;;5.80;;
3491;SDS011;1760;52.480;13.422;2023-05-07T04:02:31;8.30;;;7.00;;
3491;SDS011;1760;52.480;13.422;2023-05-07T04:04:59;6.83;;;5.60;;
3491;SDS011;1760;52.480;13.422;2023-05-07T04:07:26;14.30;;;7.03;;
3491;SDS011;1760;52.480;13.422;2023-05-07T04:09:53;9.87;;;6.50;;
3491;SDS011;1760;52.480;13.422;2023-05-07T04:12:22;10.43;;;6.03;;
3491;SDS011;1760;52.480;13.422;2023-05-07T04:14:49;6.57;;;5.13;;
3491;SDS011;1760;52.480;13.422;2023-05-07T04:17:16;10.03;;;8.00;;
3491;SDS011;1760;52.480;13.422;2023-05-07T04:19:43;11.00;;;6.70;;
3491;SDS011;1760;52.480;13.422;2023-05-07T04:22:10;9.13;;;6.30;;
3491;SDS011;1760;52.480;13.422;2023-05-07T04:24:37;6.87;;;4.93;;
3491;SDS011;1760;52.480;13.422;2023-05-07T04:27:05;9.73;;;5.93;;
3491;SDS011;1760;52.480;13.422;2023-05-07T04:29:33;9.63;;;5.90;;
3491;SDS011;1760;52.480;13.422;2023-05-07T04:32:00;7.73;;;5.50;;
3491;SDS011;1760;52.480;13.422;2023-05-07T04:34:31;8.07;;;5.57;;
3491;SDS011;1760;52.480;13.422;2023-05-07T04:37:01;7.73;;;4.97;;
3491;SDS011;1760;52.480;13.422;2023-05-07T04:39:28;5.33;;;4.83;;
3491;SDS011;1760;52.480;13.422;2023-05-07T04:41:55;7.30;;;6.50;;
3491;SDS011;1760;52.480;13.422;2023-05-07T04:44:22;6.17;;;5.57;;
3491;SDS011;1760;52.480;13.422;2023-05-07T04:46:51;7.50;;;4.57;;
3491;SDS011;1760;52.480;13.422;2023-05-07T04:49:18;6.80;;;4.70;;
3491;SDS011;1760;52.480;13.422;2023-05-07T04:51:45;6.10;;;4.07;;
3491;SDS011;1760;52.480;13.422;2023-05-07T04:54:12;7.40;;;5.20;;
3491;SDS011;1760;52.480;13.422;2023-05-07T04:56:42;6.40;;;5.20;;
3491;SDS011;1760;52.480;13.422;2023-05-07T04:59:09;7.87;;;5.70;;
3491;SDS011;1760;52.480;13.422;2023-05-07T05:01:36;8.90;;;5.53;;
3491;SDS011;1760;52.480;13.422;2023-05-07T05:04:05;7.17;;;5.57;;
3491;SDS011;1760;52.480;13.422;2023-05-07T05:06:32;5.40;;;4.20;;
3491;SDS011;1760;52.480;13.422;2023-05-07T05:08:59;5.83;;;4.20;;
3491;SDS011;1760;52.480;13.422;2023-05-07T05:11:26;7.07;;;5.20;;
3491;SDS011;1760;52.480;13.422;2023-05-07T05:13:53;6.77;;;4.70;;
3491;SDS011;1760;52.480;13.422;2023-05-07T05:16:20;5.60;;;3.63;;
3491;SDS011;1760;52.480;13.422;2023-05-07T05:18:48;4.90;;;4.13;;
3491;SDS011;1760;52.480;13.422;2023-05-07T05:21:17;4.80;;;4.30;;
3491;SDS011;1760;52.480;13.422;2023-05-07T05:23:45;6.27;;;4.20;;
3491;SDS011;1760;52.480;13.422;2023-05-07T05:26:12;6.30;;;5.00;;
3491;SDS011;1760;52.480;13.422;2023-05-07T05:28:39;5.83;;;4.93;;
3491;SDS011;1760;52.480;13.422;2023-05-07T05:31:06;10.03;;;5.00;;
3491;SDS011;1760;52.480;13.422;2023-05-07T05:33:33;6.87;;;5.03;;
3491;SDS011;1760;52.480;13.422;2023-05-07T05:36:01;5.20;;;3.50;;
3491;SDS011;1760;52.480;13.422;2023-05-07T05:38:29;10.67;;;5.17;;
3491;SDS011;1760;52.480;13.422;2023-05-07T05:40:56;8.33;;;5.00;;
3491;SDS011;1760;52.480;13.422;2023-05-07T05:43:26;9.10;;;4.80;;
3491;SDS011;1760;52.480;13.422;2023-05-07T05:45:54;7.67;;;4.80;;
3491;SDS011;1760;52.480;13.422;2023-05-07T05:48:22;7.60;;;4.37;;
3491;SDS011;1760;52.480;13.422;2023-05-07T05:50:49;6.73;;;5.00;;
3491;SDS011;1760;52.480;13.422;2023-05-07T05:53:16;7.97;;;4.67;;
3491;SDS011;1760;52.480;13.422;2023-05-07T05:55:47;7.60;;;4.63;;
3491;SDS011;1760;52.480;13.422;2023-05-07T05:58:15;7.77;;;5.13;;
3491;SDS011;1760;52.480;13.422;2023-05-07T06:00:42;7.60;;;5.60;;
3491;SDS011;1760;52.480;13.422;2023-05-07T06:03:09;7.20;;;4.80;;
3491;SDS011;1760;52.480;13.422;2023-05-07T06:05:36;5.70;;;4.37;;
3491;SDS011;1760;52.480;13.422;2023-05-07T06:08:04;6.43;;;3.80;;
3491;SDS011;1760;52.480;13.422;2023-05-07T06:10:31;5.03;;;4.13;;
3491;SDS011;1760;52.480;13.422;2023-05-07T06:12:59;5.57;;;4.60;;
3491;SDS011;1760;52.480;13.422;2023-05-07T06:15:26;7.23;;;4.73;;
3491;SDS011;1760;52.480;13.422;2023-05-07T06:17:54;4.90;;;3.67;;
3491;SDS011;1760;52.480;13.422;2023-05-07T06:20:22;7.10;;;4.73;;
3491;SDS011;1760;52.480;13.422;2023-05-07T06:22:49;12.63;;;6.17;;
3491;SDS011;1760;52.480;13.422;2023-05-07T06:25:16;6.17;;;3.80;;
3491;SDS011;1760;52.480;13.422;2023-05-07T06:27:44;9.10;;;6.20;;
3491;SDS011;1760;52.480;13.422;2023-05-07T06:30:12;7.10;;;4.83;;
3491;SDS011;1760;52.480;13.422;2023-05-07T06:32:40;6.73;;;5.23;;
3491;SDS011;1760;52.480;13.422;2023-05-07T06:35:07;9.07;;;4.67;;
3491;SDS011;1760;52.480;13.422;2023-05-07T06:37:34;7.73;;;5.60;;
3491;SDS011;1760;52.480;13.422;2023-05-07T06:40:03;6.40;;;4.80;;
3491;SDS011;1760;52.480;13.422;2023-05-07T06:42:31;7.37;;;4.90;;
3491;SDS011;1760;52.480;13.422;2023-05-07T06:44:58;5.47;;;4.33;;
3491;SDS011;1760;52.480;13.422;2023-05-07T06:47:26;6.87;;;5.03;;
3491;SDS011;1760;52.480;13.422;2023-05-07T06:49:53;8.57;;;5.37;;
3491;SDS011;1760;52.480;13.422;2023-05-07T06:52:20;5.73;;;4.80;;
3491;SDS011;1760;52.480;13.422;2023-05-07T06:54:48;7.63;;;4.63;;
3491;SDS011;1760;52.480;13.422;2023-05-07T06:57:15;6.07;;;4.07;;
3491;SDS011;1760;52.480;13.422;2023-05-07T06:59:42;6.13;;;3.60;;
3491;SDS011;1760;52.480;13.422;2023-05-07T07:02:09;7.53;;;5.10;;
3491;SDS011;1760;52.480;13.422;2023-05-07T07:04:38;8.20;;;5.20;;
3491;SDS011;1760;52.480;13.422;2023-05-07T07:07:05;5.90;;;5.30;;
3491;SDS011;1760;52.480;13.422;2023-05-07T07:09:32;5.57;;;4.33;;
3491;SDS011;1760;52.480;13.422;2023-05-07T07:12:02;11.40;;;5.17;;
3491;SDS011;1760;52.480;13.422;2023-05-07T07:14:29;6.83;;;4.67;;
3491;SDS011;1760;52.480;13.422;2023-05-07T07:16:57;6.30;;;5.03;;
3491;SDS011;1760;52.480;13.422;2023-05-07T07:19:24;7.40;;;5.10;;
3491;SDS011;1760;52.480;13.422;2023-05-07T07:21:52;6.07;;;4.27;;
3491;SDS011;1760;52.480;13.422;2023-05-07T07:24:19;7.27;;;4.40;;
3491;SDS011;1760;52.480;13.422;2023-05-07T07:26:46;4.20;;;3.03;;
3491;SDS011;1760;52.480;13.422;2023-05-07T07:29:13;5.20;;;3.40;;
3491;SDS011;1760;52.480;13.422;2023-05-07T07:31:41;5.07;;;4.37;;
3491;SDS011;1760;52.480;13.422;2023-05-07T07:34:08;5.40;;;2.87;;
3491;SDS011;1760;52.480;13.422;2023-05-07T07:36:35;6.00;;;3.67;;
3491;SDS011;1760;52.480;13.422;2023-05-07T07:39:03;4.30;;;3.90;;
3491;SDS011;1760;52.480;13.422;2023-05-07T07:41:30;4.83;;;4.40;;
3491;SDS011;1760;52.480;13.422;2023-05-07T07:43:57;4.57;;;4.13;;
3491;SDS011;1760;52.480;13.422;2023-05-07T07:46:24;19.17;;;9.33;;
3491;SDS011;1760;52.480;13.422;2023-05-07T07:48:52;5.90;;;3.73;;
3491;SDS011;1760;52.480;13.422;2023-05-07T07:51:19;4.30;;;3.13;;
3491;SDS011;1760;52.480;13.422;2023-05-07T07:53:47;7.23;;;3.30;;
3491;SDS011;1760;52.480;13.422;2023-05-07T07:56:15;4.13;;;3.53;;
3491;SDS011;1760;52.480;13.422;2023-05-07T07:58:42;4.33;;;3.33;;
3491;SDS011;1760;52.480;13.422;2023-05-07T08:01:09;5.07;;;3.90;;
3491;SDS011;1760;52.480;13.422;2023-05-07T08:03:37;6.13;;;4.03;;
3491;SDS011;1760;52.480;13.422;2023-05-07T08:06:04;5.40;;;3.57;;
3491;SDS011;1760;52.480;13.422;2023-05-07T08:08:32;3.30;;;2.70;;
3491;SDS011;1760;52.480;13.422;2023-05-07T08:10:59;3.70;;;3.37;;
3491;SDS011;1760;52.480;13.422;2023-05-07T08:13:27;6.27;;;3.80;;
3491;SDS011;1760;52.480;13.422;2023-05-07T08:15:54;4.60;;;2.90;;
3491;SDS011;1760;52.480;13.422;2023-05-07T08:18:21;3.50;;;2.73;;
3491;SDS011;1760;52.480;13.422;2023-05-07T08:20:49;5.17;;;3.00;;
3491;SDS011;1760;52.480;13.422;2023-05-07T08:23:17;5.33;;;3.20;;
3491;SDS011;1760;52.480;13.422;2023-05-07T08:25:44;4.10;;;3.27;;
3491;SDS011;1760;52.480;13.422;2023-05-07T08:28:11;5.80;;;3.73;;
3491;SDS011;1760;52.480;13.422;2023-05-07T08:30:39;3.50;;;3.20;;
3491;SDS011;1760;52.480;13.422;2023-05-07T08:33:08;3.27;;;2.97;;
3491;SDS011;1760;52.480;13.422;2023-05-07T08:35:35;3.37;;;3.07;;
3491;SDS011;1760;52.480;13.422;2023-05-07T08:38:02;6.67;;;3.23;;
3491;SDS011;1760;52.480;13.422;2023-05-07T08:40:30;3.80;;;2.60;;
3491;SDS011;1760;52.480;13.422;2023-05-07T08:43:04;3.33;;;3.03;;
3491;SDS011;1760;52.480;13.422;2023-05-07T08:45:32;2.80;;;2.50;;
3491;SDS011;1760;52.480;13.422;2023-05-07T08:48:03;3.10;;;2.57;;
3491;SDS011;1760;52.480;13.422;2023-05-07T08:50:35;3.80;;;3.50;;
3491;SDS011;1760;52.480;13.422;2023-05-07T08:53:03;3.13;;;1.97;;
3491;SDS011;1760;52.480;13.422;2023-05-07T08:55:30;4.37;;;3.70;;
3491;SDS011;1760;52.480;13.422;2023-05-07T08:57:58;2.60;;;2.40;;
3491;SDS011;1760;52.480;13.422;2023-05-07T09:00:25;4.10;;;3.00;;
3491;SDS011;1760;52.480;13.422;2023-05-07T09:02:53;2.90;;;2.47;;
3491;SDS011;1760;52.480;13.422;2023-05-07T09:05:21;3.30;;;2.83;;
3491;SDS011;1760;52.480;13.422;2023-05-07T09:07:49;5.93;;;4.00;;
3491;SDS011;1760;52.480;13.422;2023-05-07T09:10:16;3.43;;;3.00;;
3491;SDS011;1760;52.480;13.422;2023-05-07T09:12:43;4.87;;;3.10;;
3491;SDS011;1760;52.480;13.422;2023-05-07T09:15:10;3.40;;;2.43;;
3491;SDS011;1760;52.480;13.422;2023-05-07T09:17:38;5.10;;;3.33;;
3491;SDS011;1760;52.480;13.422;2023-05-07T09:20:06;3.73;;;3.33;;
3491;SDS011;1760;52.480;13.422;2023-05-07T09:22:35;3.67;;;2.70;;
3491;SDS011;1760;52.480;13.422;2023-05-07T09:25:03;4.60;;;2.70;;
3491;SDS011;1760;52.480;13.422;2023-05-07T09:27:30;3.03;;;2.60;;
3491;SDS011;1760;52.480;13.422;2023-05-07T09:29:57;4.30;;;3.20;;
3491;SDS011;1760;52.480;13.422;2023-05-07T09:32:25;3.97;;;3.23;;
3491;SDS011;1760;52.480;13.422;2023-05-07T09:34:53;7.10;;;3.20;;
3491;SDS011;1760;52.480;13.422;2023-05-07T09:37:20;4.30;;;3.07;;
3491;SDS011;1760;52.480;13.422;2023-05-07T09:39:49;3.87;;;3.00;;
3491;SDS011;1760;52.480;13.422;2023-05-07T09:42:16;3.63;;;3.03;;
3491;SDS011;1760;52.480;13.422;2023-05-07T09:44:49;2.83;;;2.40;;
3491;SDS011;1760;52.480;13.422;2023-05-07T09:47:19;3.23;;;2.93;;
3491;SDS011;1760;52.480;13.422;2023-05-07T09:49:49;3.00;;;2.43;;
3491;SDS011;1760;52.480;13.422;2023-05-07T09:52:16;2.97;;;2.70;;
3491;SDS011;1760;52.480;13.422;2023-05-07T09:54:44;3.87;;;3.13;;
3491;SDS011;1760;52.480;13.422;2023-05-07T09:57:14;3.60;;;2.63;;
3491;SDS011;1760;52.480;13.422;2023-05-07T09:59:43;3.30;;;2.30;;
3491;SDS011;1760;52.480;13.422;2023-05-07T10:02:10;2.80;;;2.60;;
3491;SDS011;1760;52.480;13.422;2023-05-07T10:04:39;3.70;;;1.97;;
3491;SDS011;1760;52.480;13.422;2023-05-07T10:07:06;2.90;;;2.43;;
3491;SDS011;1760;52.480;13.422;2023-05-07T10:09:34;4.47;;;3.00;;
3491;SDS011;1760;52.480;13.422;2023-05-07T10:12:03;2.57;;;2.07;;
3491;SDS011;1760;52.480;13.422;2023-05-07T10:14:33;2.47;;;2.27;;
3491;SDS011;1760;52.480;13.422;2023-05-07T10:17:01;2.57;;;2.10;;
3491;SDS011;1760;52.480;13.422;2023-05-07T10:19:29;2.40;;;2.20;;
3491;SDS011;1760;52.480;13.422;2023-05-07T10:22:00;1.90;;;1.80;;
3491;SDS011;1760;52.480;13.422;2023-05-07T10:24:31;2.50;;;2.20;;
3491;SDS011;1760;52.480;13.422;2023-05-07T10:27:00;3.37;;;2.47;;
3491;SDS011;1760;52.480;13.422;2023-05-07T10:29:37;2.53;;;2.20;;
3491;SDS011;1760;52.480;13.422;2023-05-07T10:32:18;1.83;;;1.63;;
3491;SDS011;1760;52.480;13.422;2023-05-07T10:34:55;3.30;;;2.10;;
3491;SDS011;1760;52.480;13.422;2023-05-07T10:37:25;3.83;;;2.00;;
3491;SDS011;1760;52.480;13.422;2023-05-07T10:39:52;1.80;;;1.70;;
3491;SDS011;1760;52.480;13.422;2023-05-07T10:42:19;2.97;;;1.97;;
3491;SDS011;1760;52.480;13.422;2023-05-07T10:44:47;3.87;;;1.97;;
3491;SDS011;1760;52.480;13.422;2023-05-07T10:47:15;5.57;;;2.07;;
3491;SDS011;1760;52.480;13.422;2023-05-07T10:53:00;3.20;;;2.67;;
3491;SDS011;1760;52.480;13.422;2023-05-07T10:55:49;2.40;;;1.83;;
3491;SDS011;1760;52.480;13.422;2023-05-07T10:58:23;7.13;;;3.27;;
3491;SDS011;1760;52.480;13.422;2023-05-07T11:00:55;2.30;;;1.90;;
3491;SDS011;1760;52.480;13.422;2023-05-07T11:03:23;4.00;;;2.40;;
3491;SDS011;1760;52.480;13.422;2023-05-07T11:08:54;2.40;;;2.20;;
3491;SDS011;1760;52.480;13.422;2023-05-07T11:14:13;2.90;;;2.50;;
3491;SDS011;1760;52.480;13.422;2023-05-07T11:16:42;5.07;;;2.50;;
3491;SDS011;1760;52.480;13.422;2023-05-07T11:19:10;2.37;;;2.10;;
3491;SDS011;1760;52.480;13.422;2023-05-07T11:21:37;2.80;;;2.20;;
3491;SDS011;1760;52.480;13.422;2023-05-07T11:24:05;2.07;;;1.80;;
3491;SDS011;1760;52.480;13.422;2023-05-07T11:26:41;2.40;;;1.87;;
3491;SDS011;1760;52.480;13.422;2023-05-07T11:29:11;3.07;;;1.93;;
3491;SDS011;1760;52.480;13.422;2023-05-07T11:31:38;3.27;;;2.07;;
3491;SDS011;1760;52.480;13.422;2023-05-07T11:34:07;2.30;;;2.10;;
3491;SDS011;1760;52.480;13.422;2023-05-07T11:36:35;2.43;;;1.60;;
3491;SDS011;1760;52.480;13.422;2023-05-07T11:39:03;2.20;;;1.87;;
3491;SDS011;1760;52.480;13.422;2023-05-07T11:41:35;3.13;;;2.23;;
3491;SDS011;1760;52.480;13.422;2023-05-07T11:44:02;4.20;;;2.80;;
3491;SDS011;1760;52.480;13.422;2023-05-07T11:46:30;2.97;;;2.53;;
3491;SDS011;1760;52.480;13.422;2023-05-07T11:48:57;4.80;;;3.00;;
3491;SDS011;1760;52.480;13.422;2023-05-07T11:51:25;7.00;;;2.20;;
3491;SDS011;1760;52.480;13.422;2023-05-07T11:53:53;4.30;;;2.77;;
3491;SDS011;1760;52.480;13.422;2023-05-07T11:56:20;5.47;;;2.70;;
3491;SDS011;1760;52.480;13.422;2023-05-07T11:58:48;3.83;;;1.67;;
3491;SDS011;1760;52.480;13.422;2023-05-07T12:01:16;4.43;;;2.57;;
3491;SDS011;1760;52.480;13.422;2023-05-07T12:03:44;5.63;;;2.50;;
3491;SDS011;1760;52.480;13.422;2023-05-07T12:06:12;2.20;;;2.00;;
3491;SDS011;1760;52.480;13.422;2023-05-07T12:08:40;2.87;;;1.90;;
3491;SDS011;1760;52.480;13.422;2023-05-07T12:11:08;4.47;;;2.20;;
3491;SDS011;1760;52.480;13.422;2023-05-07T12:13:36;2.03;;;1.80;;
3491;SDS011;1760;52.480;13.422;2023-05-07T12:16:05;2.37;;;2.10;;
3491;SDS011;1760;52.480;13.422;2023-05-07T12:18:33;2.77;;;2.13;;
3491;SDS011;1760;52.480;13.422;2023-05-07T12:21:02;2.60;;;2.10;;
3491;SDS011;1760;52.480;13.422;2023-05-07T12:23:29;2.10;;;1.80;;
3491;SDS011;1760;52.480;13.422;2023-05-07T12:25:58;6.57;;;2.20;;
3491;SDS011;1760;52.480;13.422;2023-05-07T12:28:26;4.70;;;1.77;;
3491;SDS011;1760;52.480;13.422;2023-05-07T12:30:53;1.73;;;1.63;;
3491;SDS011;1760;52.480;13.422;2023-05-07T12:33:23;2.20;;;1.93;;
3491;SDS011;1760;52.480;13.422;2023-05-07T12:35:50;2.80;;;1.80;;
3491;SDS011;1760;52.480;13.422;2023-05-07T12:38:20;2.70;;;1.97;;
3491;SDS011;1760;52.480;13.422;2023-05-07T12:40:49;2.97;;;2.43;;
3491;SDS011;1760;52.480;13.422;2023-05-07T12:43:18;7.27;;;1.73;;
3491;SDS011;1760;52.480;13.422;2023-05-07T12:45:46;3.27;;;2.47;;
3491;SDS011;1760;52.480;13.422;2023-05-07T12:48:15;3.30;;;2.17;;
3491;SDS011;1760;52.480;13.422;2023-05-07T12:50:42;2.63;;;2.43;;
3491;SDS011;1760;52.480;13.422;2023-05-07T12:53:10;2.00;;;1.80;;
3491;SDS011;1760;52.480;13.422;2023-05-07T12:55:41;5.63;;;1.70;;
3491;SDS011;1760;52.480;13.422;2023-05-07T12:58:14;2.33;;;1.80;;
3491;SDS011;1760;52.480;13.422;2023-05-07T13:00:43;3.13;;;2.00;;
3491;SDS011;1760;52.480;13.422;2023-05-07T13:03:10;2.70;;;2.10;;
3491;SDS011;1760;52.480;13.422;2023-05-07T13:05:37;2.90;;;1.93;;
3491;SDS011;1760;52.480;13.422;2023-05-07T13:08:05;4.80;;;2.60;;
3491;SDS011;1760;52.480;13.422;2023-05-07T13:10:34;3.33;;;2.40;;
3491;SDS011;1760;52.480;13.422;2023-05-07T13:13:01;2.33;;;1.83;;
3491;SDS011;1760;52.480;13.422;2023-05-07T13:15:29;2.70;;;2.20;;
3491;SDS011;1760;52.480;13.422;2023-05-07T13:17:58;4.20;;;2.20;;
3491;SDS011;1760;52.480;13.422;2023-05-07T13:20:25;2.33;;;2.13;;
3491;SDS011;1760;52.480;13.422;2023-05-07T13:22:52;1.70;;;1.60;;
3491;SDS011;1760;52.480;13.422;2023-05-07T13:25:19;2.80;;;2.30;;
3491;SDS011;1760;52.480;13.422;2023-05-07T13:27:46;2.30;;;1.77;;
3491;SDS011;1760;52.480;13.422;2023-05-07T13:30:14;1.97;;;1.70;;
3491;SDS011;1760;52.480;13.422;2023-05-07T13:32:41;3.57;;;2.03;;
3491;SDS011;1760;52.480;13.422;2023-05-07T13:35:10;2.80;;;2.13;;
3491;SDS011;1760;52.480;13.422;2023-05-07T13:37:37;2.60;;;1.80;;
3491;SDS011;1760;52.480;13.422;2023-05-07T13:40:04;2.80;;;2.17;;
3491;SDS011;1760;52.480;13.422;2023-05-07T13:42:34;2.33;;;2.07;;
3491;SDS011;1760;52.480;13.422;2023-05-07T13:45:01;2.70;;;2.47;;
3491;SDS011;1760;52.480;13.422;2023-05-07T13:47:30;3.60;;;2.60;;
3491;SDS011;1760;52.480;13.422;2023-05-07T13:49:57;2.30;;;1.97;;
3491;SDS011;1760;52.480;13.422;2023-05-07T13:52:25;3.30;;;1.90;;
3491;SDS011;1760;52.480;13.422;2023-05-07T13:54:52;2.40;;;1.37;;
3491;SDS011;1760;52.480;13.422;2023-05-07T13:57:20;4.30;;;2.67;;
3491;SDS011;1760;52.480;13.422;2023-05-07T13:59:47;3.20;;;2.10;;
3491;SDS011;1760;52.480;13.422;2023-05-07T14:02:14;2.33;;;2.13;;
3491;SDS011;1760;52.480;13.422;2023-05-07T14:04:41;2.03;;;1.70;;
3491;SDS011;1760;52.480;13.422;2023-05-07T14:07:09;1.73;;;1.63;;
3491;SDS011;1760;52.480;13.422;2023-05-07T14:09:38;2.90;;;1.70;;
3491;SDS011;1760;52.480;13.422;2023-05-07T14:12:05;1.97;;;1.40;;
3491;SDS011;1760;52.480;13.422;2023-05-07T14:14:32;2.93;;;2.17;;
3491;SDS011;1760;52.480;13.422;2023-05-07T14:16:59;3.33;;;2.20;;
3491;SDS011;1760;52.480;13.422;2023-05-07T14:19:26;1.67;;;1.40;;
3491;SDS011;1760;52.480;13.422;2023-05-07T14:21:54;1.60;;;1.47;;
3491;SDS011;1760;52.480;13.422;2023-05-07T14:24:21;1.67;;;1.30;;
3491;SDS011;1760;52.480;13.422;2023-05-07T14:26:49;1.97;;;1.47;;
3491;SDS011;1760;52.480;13.422;2023-05-07T14:29:16;1.80;;;1.23;;
3491;SDS011;1760;52.480;13.422;2023-05-07T14:31:44;1.90;;;1.77;;
3491;SDS011;1760;52.480;13.422;2023-05-07T14:34:12;2.70;;;2.03;;
3491;SDS011;1760;52.480;13.422;2023-05-07T14:36:39;2.83;;;2.10;;
3491;SDS011;1760;52.480;13.422;2023-05-07T14:39:06;2.00;;;1.80;;
3491;SDS011;1760;52.480;13.422;2023-05-07T14:41:33;2.70;;;1.63;;
3491;SDS011;1760;52.480;13.422;2023-05-07T14:44:02;4.20;;;2.20;;
3491;SDS011;1760;52.480;13.422;2023-05-07T14:46:29;2.60;;;1.70;;
3491;SDS011;1760;52.480;13.422;2023-05-07T14:48:56;8.03;;;2.30;;
3491;SDS011;1760;52.480;13.422;2023-05-07T14:51:23;2.20;;;2.00;;
3491;SDS011;1760;52.480;13.422;2023-05-07T14:53:53;3.50;;;1.73;;
3491;SDS011;1760;52.480;13.422;2023-05-07T14:56:20;2.50;;;1.87;;
3491;SDS011;1760;52.480;13.422;2023-05-07T14:58:47;3.60;;;1.93;;
3491;SDS011;1760;52.480;13.422;2023-05-07T15:01:16;4.30;;;1.77;;
3491;SDS011;1760;52.480;13.422;2023-05-07T15:03:43;2.07;;;1.80;;
3491;SDS011;1760;52.480;13.422;2023-05-07T15:06:10;2.80;;;2.57;;
3491;SDS011;1760;52.480;13.422;2023-05-07T15:08:37;2.87;;;1.97;;
3491;SDS011;1760;52.480;13.422;2023-05-07T15:11:04;4.93;;;2.57;;
3491;SDS011;1760;52.480;13.422;2023-05-07T15:13:31;2.37;;;1.80;;